sensor_id;sensor_type;location;lat;lon;timestamp;P1;durP1;ratioP1;P2;durP2;ratioP2
11090;SDS011;5599;52.210;21.046;2023-08-21T00:01:02;13.23;;;12.23;;
11090;SDS011;5599;52.210;21.046;2023-08-21T00:03:32;13.23;;;12.02;;
11090;SDS011;5599;52.210;21.046;2023-08-21T00:06:01;13.38;;;12.38;;
11090;SDS011;5599;52.210;21.046;2023-08-21T00:08:31;13.05;;;11.85;;
11090;SDS011;5599;52.210;21.046;2023-08-21T00:11:00;12.95;;;11.73;;
11090;SDS011;5599;52.210;21.046;2023-08-21T00:13:30;13.32;;;12.32;;
11090;SDS011;5599;52.210;21.046;2023-08-21T00:15:59;14.10;;;12.90;;
11090;SDS011;5599;52.210;21.046;2023-08-21T00:18:28;12.68;;;11.57;;
11090;SDS011;5599;52.210;21.046;2023-08-21T00:20:57;13.40;;;12.30;;
11090;SDS011;5599;52.210;21.046;2023-08-21T00:23:26;13.18;;;12.10;;
11090;SDS011;5599;52.210;21.046;2023-08-21T00:25:56;13.88;;;12.68;;
11090;SDS011;5599;52.210;21.046;2023-08-21T00:28:25;12.77;;;11.77;;
11090;SDS011;5599;52.210;21.046;2023-08-21T00:31:01;14.20;;;12.90;;
11090;SDS011;5599;52.210;21.046;2023-08-21T00:33:31;12.60;;;11.70;;
11090;SDS011;5599;52.210;21.046;2023-08-21T00:36:00;13.13;;;12.13;;
11090;SDS011;5599;52.210;21.046;2023-08-21T00:38:30;13.93;;;12.10;;
11090;SDS011;5599;52.210;21.046;2023-08-21T00:41:00;14.13;;;12.95;;
11090;SDS011;5599;52.210;21.046;2023-08-21T00:43:31;14.20;;;12.88;;
11090;SDS011;5599;52.210;21.046;2023-08-21T00:46:00;14.05;;;12.90;;
11090;SDS011;5599;52.210;21.046;2023-08-21T00:48:30;13.02;;;12.02;;
11090;SDS011;5599;52.210;21.046;2023-08-21T00:51:00;14.25;;;13.05;;
11090;SDS011;5599;52.210;21.046;2023-08-21T00:53:30;14.20;;;12.73;;
11090;SDS011;5599;52.210;21.046;2023-08-21T00:56:00;14.00;;;12.73;;
11090;SDS011;5599;52.210;21.046;2023-08-21T00:58:29;13.77;;;12.68;;
11090;SDS011;5599;52.210;21.046;2023-08-21T01:00:59;14.77;;;13.20;;
11090;SDS011;5599;52.210;21.046;2023-08-21T01:03:28;14.80;;;13.55;;
11090;SDS011;5599;52.210;21.046;2023-08-21T01:05:58;14.35;;;13.05;;
11090;SDS011;5599;52.210;21.046;2023-08-21T01:08:29;13.50;;;12.40;;
11090;SDS011;5599;52.210;21.046;2023-08-21T01:11:11;13.88;;;12.88;;
11090;SDS011;5599;52.210;21.046;2023-08-21T01:13:48;13.60;;;12.55;;
11090;SDS011;5599;52.210;21.046;2023-08-21T01:16:23;14.55;;;13.35;;
11090;SDS011;5599;52.210;21.046;2023-08-21T01:18:54;15.38;;;14.07;;
11090;SDS011;5599;52.210;21.046;2023-08-21T01:21:24;12.90;;;11.70;;
11090;SDS011;5599;52.210;21.046;2023-08-21T01:23:55;14.73;;;13.50;;
11090;SDS011;5599;52.210;21.046;2023-08-21T01:26:24;13.27;;;12.27;;
11090;SDS011;5599;52.210;21.046;2023-08-21T01:28:53;13.35;;;12.35;;
11090;SDS011;5599;52.210;21.046;2023-08-21T01:31:23;15.02;;;13.45;;
11090;SDS011;5599;52.210;21.046;2023-08-21T01:33:56;15.18;;;13.60;;
11090;SDS011;5599;52.210;21.046;2023-08-21T01:36:31;14.18;;;12.98;;
11090;SDS011;5599;52.210;21.046;2023-08-21T01:39:02;14.98;;;13.57;;
11090;SDS011;5599;52.210;21.046;2023-08-21T01:41:32;14.27;;;12.98;;
11090;SDS011;5599;52.210;21.046;2023-08-21T01:44:01;15.45;;;13.98;;
11090;SDS011;5599;52.210;21.046;2023-08-21T01:46:30;14.68;;;13.40;;
11090;SDS011;5599;52.210;21.046;2023-08-21T01:48:59;15.07;;;13.68;;
11090;SDS011;5599;52.210;21.046;2023-08-21T01:51:28;14.88;;;13.68;;
11090;SDS011;5599;52.210;21.046;2023-08-21T01:53:57;15.02;;;13.82;;
11090;SDS011;5599;52.210;21.046;2023-08-21T01:56:27;15.68;;;14.27;;
11090;SDS011;5599;52.210;21.046;2023-08-21T01:58:56;15.43;;;14.18;;
11090;SDS011;5599;52.210;21.046;2023-08-21T02:01:26;14.75;;;13.50;;
11090;SDS011;5599;52.210;21.046;2023-08-21T02:03:55;15.73;;;14.43;;
11090;SDS011;5599;52.210;21.046;2023-08-21T02:06:24;15.23;;;14.00;;
11090;SDS011;5599;52.210;21.046;2023-08-21T02:08:53;15.52;;;14.32;;
11090;SDS011;5599;52.210;21.046;2023-08-21T02:11:22;15.88;;;14.57;;
11090;SDS011;5599;52.210;21.046;2023-08-21T02:13:53;16.25;;;14.85;;
11090;SDS011;5599;52.210;21.046;2023-08-21T02:16:22;15.40;;;13.93;;
11090;SDS011;5599;52.210;21.046;2023-08-21T02:18:52;14.95;;;13.57;;
11090;SDS011;5599;52.210;21.046;2023-08-21T02:21:21;15.52;;;14.15;;
11090;SDS011;5599;52.210;21.046;2023-08-21T02:23:50;16.17;;;14.85;;
11090;SDS011;5599;52.210;21.046;2023-08-21T02:26:19;16.17;;;14.88;;
11090;SDS011;5599;52.210;21.046;2023-08-21T02:28:49;15.80;;;14.50;;
11090;SDS011;5599;52.210;21.046;2023-08-21T02:31:20;14.93;;;13.80;;
11090;SDS011;5599;52.210;21.046;2023-08-21T02:33:49;15.27;;;13.98;;
11090;SDS011;5599;52.210;21.046;2023-08-21T02:36:19;16.48;;;14.57;;
11090;SDS011;5599;52.210;21.046;2023-08-21T02:38:49;17.00;;;15.52;;
11090;SDS011;5599;52.210;21.046;2023-08-21T02:41:18;16.13;;;14.75;;
11090;SDS011;5599;52.210;21.046;2023-08-21T02:43:47;16.98;;;15.18;;
11090;SDS011;5599;52.210;21.046;2023-08-21T02:46:16;15.52;;;13.88;;
11090;SDS011;5599;52.210;21.046;2023-08-21T02:48:46;15.57;;;14.32;;
11090;SDS011;5599;52.210;21.046;2023-08-21T02:51:16;14.93;;;13.73;;
11090;SDS011;5599;52.210;21.046;2023-08-21T02:53:46;16.42;;;14.77;;
11090;SDS011;5599;52.210;21.046;2023-08-21T02:56:15;15.25;;;13.85;;
11090;SDS011;5599;52.210;21.046;2023-08-21T02:58:44;16.08;;;14.60;;
11090;SDS011;5599;52.210;21.046;2023-08-21T03:01:13;16.67;;;15.20;;
11090;SDS011;5599;52.210;21.046;2023-08-21T03:03:42;15.50;;;14.10;;
11090;SDS011;5599;52.210;21.046;2023-08-21T03:06:12;16.35;;;14.88;;
11090;SDS011;5599;52.210;21.046;2023-08-21T03:08:43;16.45;;;14.73;;
11090;SDS011;5599;52.210;21.046;2023-08-21T03:11:12;15.57;;;14.27;;
11090;SDS011;5599;52.210;21.046;2023-08-21T03:13:41;16.52;;;14.95;;
11090;SDS011;5599;52.210;21.046;2023-08-21T03:16:10;16.33;;;14.93;;
11090;SDS011;5599;52.210;21.046;2023-08-21T03:18:53;16.95;;;15.45;;
11090;SDS011;5599;52.210;21.046;2023-08-21T03:21:26;17.25;;;15.65;;
11090;SDS011;5599;52.210;21.046;2023-08-21T03:23:58;16.15;;;14.85;;
11090;SDS011;5599;52.210;21.046;2023-08-21T03:26:31;16.13;;;14.77;;
11090;SDS011;5599;52.210;21.046;2023-08-21T03:29:00;16.75;;;15.38;;
11090;SDS011;5599;52.210;21.046;2023-08-21T03:31:30;16.90;;;15.57;;
11090;SDS011;5599;52.210;21.046;2023-08-21T03:33:59;16.55;;;15.15;;
11090;SDS011;5599;52.210;21.046;2023-08-21T03:36:30;17.15;;;15.75;;
11090;SDS011;5599;52.210;21.046;2023-08-21T03:39:02;16.55;;;15.18;;
11090;SDS011;5599;52.210;21.046;2023-08-21T03:41:36;16.88;;;15.27;;
11090;SDS011;5599;52.210;21.046;2023-08-21T03:44:05;16.63;;;15.10;;
11090;SDS011;5599;52.210;21.046;2023-08-21T03:46:34;16.85;;;15.15;;
11090;SDS011;5599;52.210;21.046;2023-08-21T03:49:04;16.77;;;15.27;;
11090;SDS011;5599;52.210;21.046;2023-08-21T03:51:34;17.52;;;16.05;;
11090;SDS011;5599;52.210;21.046;2023-08-21T03:54:04;16.50;;;15.13;;
11090;SDS011;5599;52.210;21.046;2023-08-21T03:56:35;17.80;;;15.98;;
11090;SDS011;5599;52.210;21.046;2023-08-21T03:59:04;17.83;;;16.10;;
11090;SDS011;5599;52.210;21.046;2023-08-21T04:01:33;15.45;;;14.15;;
11090;SDS011;5599;52.210;21.046;2023-08-21T04:04:03;16.05;;;14.68;;
11090;SDS011;5599;52.210;21.046;2023-08-21T04:06:32;17.42;;;15.77;;
11090;SDS011;5599;52.210;21.046;2023-08-21T04:09:02;16.60;;;15.30;;
11090;SDS011;5599;52.210;21.046;2023-08-21T04:11:33;15.82;;;14.40;;
11090;SDS011;5599;52.210;21.046;2023-08-21T04:14:02;17.08;;;15.63;;
11090;SDS011;5599;52.210;21.046;2023-08-21T04:16:31;17.38;;;15.75;;
11090;SDS011;5599;52.210;21.046;2023-08-21T04:19:01;16.92;;;15.32;;
11090;SDS011;5599;52.210;21.046;2023-08-21T04:21:31;16.90;;;15.43;;
11090;SDS011;5599;52.210;21.046;2023-08-21T04:24:00;16.80;;;15.30;;
11090;SDS011;5599;52.210;21.046;2023-08-21T04:26:30;16.33;;;14.65;;
11090;SDS011;5599;52.210;21.046;2023-08-21T04:28:59;16.73;;;15.35;;
11090;SDS011;5599;52.210;21.046;2023-08-21T04:31:29;15.80;;;14.32;;
11090;SDS011;5599;52.210;21.046;2023-08-21T04:33:58;16.27;;;14.52;;
11090;SDS011;5599;52.210;21.046;2023-08-21T04:36:29;16.08;;;14.73;;
11090;SDS011;5599;52.210;21.046;2023-08-21T04:38:59;17.77;;;16.08;;
11090;SDS011;5599;52.210;21.046;2023-08-21T04:41:28;16.67;;;15.00;;
11090;SDS011;5599;52.210;21.046;2023-08-21T04:43:59;16.10;;;14.60;;
11090;SDS011;5599;52.210;21.046;2023-08-21T04:46:30;15.30;;;13.93;;
11090;SDS011;5599;52.210;21.046;2023-08-21T04:49:00;16.73;;;15.10;;
11090;SDS011;5599;52.210;21.046;2023-08-21T04:51:29;15.98;;;14.30;;
11090;SDS011;5599;52.210;21.046;2023-08-21T04:54:01;17.15;;;15.27;;
11090;SDS011;5599;52.210;21.046;2023-08-21T04:56:32;15.10;;;13.70;;
11090;SDS011;5599;52.210;21.046;2023-08-21T04:59:01;15.43;;;13.90;;
11090;SDS011;5599;52.210;21.046;2023-08-21T05:01:31;15.15;;;13.85;;
11090;SDS011;5599;52.210;21.046;2023-08-21T05:04:01;15.43;;;13.77;;
11090;SDS011;5599;52.210;21.046;2023-08-21T05:06:30;14.50;;;13.15;;
11090;SDS011;5599;52.210;21.046;2023-08-21T05:08:59;15.52;;;13.98;;
11090;SDS011;5599;52.210;21.046;2023-08-21T05:11:29;16.45;;;14.75;;
11090;SDS011;5599;52.210;21.046;2023-08-21T05:13:59;14.73;;;13.38;;
11090;SDS011;5599;52.210;21.046;2023-08-21T05:16:29;15.20;;;13.80;;
11090;SDS011;5599;52.210;21.046;2023-08-21T05:18:59;16.17;;;14.60;;
11090;SDS011;5599;52.210;21.046;2023-08-21T05:21:28;17.10;;;15.13;;
11090;SDS011;5599;52.210;21.046;2023-08-21T05:23:58;16.33;;;14.20;;
11090;SDS011;5599;52.210;21.046;2023-08-21T05:26:27;16.23;;;14.82;;
11090;SDS011;5599;52.210;21.046;2023-08-21T05:28:56;15.82;;;14.43;;
11090;SDS011;5599;52.210;21.046;2023-08-21T05:31:27;15.23;;;13.70;;
11090;SDS011;5599;52.210;21.046;2023-08-21T05:33:57;17.27;;;15.18;;
11090;SDS011;5599;52.210;21.046;2023-08-21T05:36:27;16.33;;;14.57;;
11090;SDS011;5599;52.210;21.046;2023-08-21T05:38:57;16.48;;;14.85;;
11090;SDS011;5599;52.210;21.046;2023-08-21T05:41:31;16.60;;;14.20;;
11090;SDS011;5599;52.210;21.046;2023-08-21T05:44:00;15.93;;;14.43;;
11090;SDS011;5599;52.210;21.046;2023-08-21T05:46:31;16.35;;;14.95;;
11090;SDS011;5599;52.210;21.046;2023-08-21T05:49:01;15.70;;;14.40;;
11090;SDS011;5599;52.210;21.046;2023-08-21T05:51:30;14.50;;;13.18;;
11090;SDS011;5599;52.210;21.046;2023-08-21T05:53:59;15.18;;;13.75;;
11090;SDS011;5599;52.210;21.046;2023-08-21T05:56:29;15.93;;;14.63;;
11090;SDS011;5599;52.210;21.046;2023-08-21T05:58:58;15.02;;;13.65;;
11090;SDS011;5599;52.210;21.046;2023-08-21T06:01:27;15.38;;;13.70;;
11090;SDS011;5599;52.210;21.046;2023-08-21T06:03:58;15.82;;;14.30;;
11090;SDS011;5599;52.210;21.046;2023-08-21T06:06:54;15.90;;;14.40;;
11090;SDS011;5599;52.210;21.046;2023-08-21T06:09:23;16.75;;;15.02;;
11090;SDS011;5599;52.210;21.046;2023-08-21T06:11:53;16.30;;;14.68;;
11090;SDS011;5599;52.210;21.046;2023-08-21T06:14:22;16.00;;;14.50;;
11090;SDS011;5599;52.210;21.046;2023-08-21T06:17:00;15.85;;;14.32;;
11090;SDS011;5599;52.210;21.046;2023-08-21T06:19:31;16.58;;;15.00;;
11090;SDS011;5599;52.210;21.046;2023-08-21T06:22:00;16.33;;;14.77;;
11090;SDS011;5599;52.210;21.046;2023-08-21T06:24:30;15.55;;;14.13;;
11090;SDS011;5599;52.210;21.046;2023-08-21T06:27:02;17.05;;;15.38;;
11090;SDS011;5599;52.210;21.046;2023-08-21T06:29:34;16.65;;;15.05;;
11090;SDS011;5599;52.210;21.046;2023-08-21T06:32:04;16.08;;;14.57;;
11090;SDS011;5599;52.210;21.046;2023-08-21T06:34:35;17.20;;;15.75;;
11090;SDS011;5599;52.210;21.046;2023-08-21T06:37:05;17.67;;;15.48;;
11090;SDS011;5599;52.210;21.046;2023-08-21T06:39:34;16.92;;;15.35;;
11090;SDS011;5599;52.210;21.046;2023-08-21T06:42:04;16.83;;;15.32;;
11090;SDS011;5599;52.210;21.046;2023-08-21T06:44:40;17.25;;;15.45;;
11090;SDS011;5599;52.210;21.046;2023-08-21T06:47:09;16.38;;;14.57;;
11090;SDS011;5599;52.210;21.046;2023-08-21T06:49:40;14.77;;;13.35;;
11090;SDS011;5599;52.210;21.046;2023-08-21T06:52:09;15.82;;;14.25;;
11090;SDS011;5599;52.210;21.046;2023-08-21T06:54:38;14.32;;;13.13;;
11090;SDS011;5599;52.210;21.046;2023-08-21T06:57:07;14.23;;;13.10;;
11090;SDS011;5599;52.210;21.046;2023-08-21T06:59:37;15.48;;;12.95;;
11090;SDS011;5599;52.210;21.046;2023-08-21T07:02:08;14.88;;;13.68;;
11090;SDS011;5599;52.210;21.046;2023-08-21T07:04:37;15.95;;;14.35;;
11090;SDS011;5599;52.210;21.046;2023-08-21T07:07:08;16.30;;;14.90;;
11090;SDS011;5599;52.210;21.046;2023-08-21T07:09:38;16.90;;;15.50;;
11090;SDS011;5599;52.210;21.046;2023-08-21T07:12:07;18.00;;;16.48;;
11090;SDS011;5599;52.210;21.046;2023-08-21T07:14:38;17.83;;;16.23;;
11090;SDS011;5599;52.210;21.046;2023-08-21T07:17:08;16.75;;;15.23;;
11090;SDS011;5599;52.210;21.046;2023-08-21T07:19:38;15.68;;;14.32;;
11090;SDS011;5599;52.210;21.046;2023-08-21T07:22:13;17.80;;;16.10;;
11090;SDS011;5599;52.210;21.046;2023-08-21T07:24:42;17.52;;;16.13;;
11090;SDS011;5599;52.210;21.046;2023-08-21T07:27:12;17.27;;;15.80;;
11090;SDS011;5599;52.210;21.046;2023-08-21T07:29:41;17.30;;;15.55;;
11090;SDS011;5599;52.210;21.046;2023-08-21T07:32:10;17.88;;;16.27;;
11090;SDS011;5599;52.210;21.046;2023-08-21T07:34:41;17.50;;;16.02;;
11090;SDS011;5599;52.210;21.046;2023-08-21T07:37:11;17.92;;;16.52;;
11090;SDS011;5599;52.210;21.046;2023-08-21T07:39:40;18.70;;;16.80;;
11090;SDS011;5599;52.210;21.046;2023-08-21T07:42:10;18.67;;;16.90;;
11090;SDS011;5599;52.210;21.046;2023-08-21T07:44:40;18.95;;;17.25;;
11090;SDS011;5599;52.210;21.046;2023-08-21T07:47:09;18.77;;;17.15;;
11090;SDS011;5599;52.210;21.046;2023-08-21T07:49:38;18.08;;;16.45;;
11090;SDS011;5599;52.210;21.046;2023-08-21T07:52:09;17.35;;;15.95;;
11090;SDS011;5599;52.210;21.046;2023-08-21T07:54:38;19.25;;;17.55;;
11090;SDS011;5599;52.210;21.046;2023-08-21T07:57:07;17.77;;;16.08;;
11090;SDS011;5599;52.210;21.046;2023-08-21T07:59:36;18.88;;;17.27;;
11090;SDS011;5599;52.210;21.046;2023-08-21T08:02:05;19.00;;;17.33;;
11090;SDS011;5599;52.210;21.046;2023-08-21T08:04:35;17.98;;;16.38;;
11090;SDS011;5599;52.210;21.046;2023-08-21T08:07:04;15.98;;;14.68;;
11090;SDS011;5599;52.210;21.046;2023-08-21T08:09:35;17.25;;;15.60;;
11090;SDS011;5599;52.210;21.046;2023-08-21T08:12:04;15.88;;;14.60;;
11090;SDS011;5599;52.210;21.046;2023-08-21T08:14:35;15.60;;;14.20;;
11090;SDS011;5599;52.210;21.046;2023-08-21T08:17:04;15.88;;;14.48;;
11090;SDS011;5599;52.210;21.046;2023-08-21T08:19:33;14.23;;;12.85;;
11090;SDS011;5599;52.210;21.046;2023-08-21T08:22:03;13.63;;;12.15;;
11090;SDS011;5599;52.210;21.046;2023-08-21T08:24:32;14.30;;;12.75;;
11090;SDS011;5599;52.210;21.046;2023-08-21T08:27:02;13.75;;;12.45;;
11090;SDS011;5599;52.210;21.046;2023-08-21T08:29:32;13.15;;;11.82;;
11090;SDS011;5599;52.210;21.046;2023-08-21T08:32:01;12.90;;;11.48;;
11090;SDS011;5599;52.210;21.046;2023-08-21T08:34:30;12.07;;;10.85;;
11090;SDS011;5599;52.210;21.046;2023-08-21T08:36:59;11.73;;;10.27;;
11090;SDS011;5599;52.210;21.046;2023-08-21T08:39:28;12.80;;;11.38;;
11090;SDS011;5599;52.210;21.046;2023-08-21T08:41:58;12.07;;;11.15;;
11090;SDS011;5599;52.210;21.046;2023-08-21T08:44:33;11.63;;;10.43;;
11090;SDS011;5599;52.210;21.046;2023-08-21T08:47:04;11.77;;;10.73;;
11090;SDS011;5599;52.210;21.046;2023-08-21T08:49:33;12.15;;;10.45;;
11090;SDS011;5599;52.210;21.046;2023-08-21T08:52:03;11.50;;;10.50;;
11090;SDS011;5599;52.210;21.046;2023-08-21T08:54:32;10.57;;;9.68;;
11090;SDS011;5599;52.210;21.046;2023-08-21T08:57:02;10.35;;;9.35;;
11090;SDS011;5599;52.210;21.046;2023-08-21T08:59:33;12.88;;;10.20;;
11090;SDS011;5599;52.210;21.046;2023-08-21T09:02:02;9.95;;;9.15;;
11090;SDS011;5599;52.210;21.046;2023-08-21T09:04:32;9.82;;;8.93;;
11090;SDS011;5599;52.210;21.046;2023-08-21T09:07:07;9.52;;;8.50;;
11090;SDS011;5599;52.210;21.046;2023-08-21T09:09:40;10.25;;;9.15;;
11090;SDS011;5599;52.210;21.046;2023-08-21T09:12:13;9.07;;;7.95;;
11090;SDS011;5599;52.210;21.046;2023-08-21T09:14:44;9.27;;;8.48;;
11090;SDS011;5599;52.210;21.046;2023-08-21T09:17:14;9.40;;;7.28;;
11090;SDS011;5599;52.210;21.046;2023-08-21T09:19:44;8.20;;;7.50;;
11090;SDS011;5599;52.210;21.046;2023-08-21T09:22:14;7.88;;;7.05;;
11090;SDS011;5599;52.210;21.046;2023-08-21T09:24:59;7.85;;;7.25;;
11090;SDS011;5599;52.210;21.046;2023-08-21T09:27:34;7.40;;;6.65;;
11090;SDS011;5599;52.210;21.046;2023-08-21T09:30:06;7.47;;;6.78;;
11090;SDS011;5599;52.210;21.046;2023-08-21T09:32:54;7.45;;;6.68;;
11090;SDS011;5599;52.210;21.046;2023-08-21T09:35:24;7.40;;;6.78;;
11090;SDS011;5599;52.210;21.046;2023-08-21T09:37:53;6.63;;;6.10;;
11090;SDS011;5599;52.210;21.046;2023-08-21T09:40:22;8.63;;;6.30;;
11090;SDS011;5599;52.210;21.046;2023-08-21T09:42:51;8.52;;;6.50;;
11090;SDS011;5599;52.210;21.046;2023-08-21T09:45:23;6.50;;;6.00;;
11090;SDS011;5599;52.210;21.046;2023-08-21T09:47:53;7.13;;;6.63;;
11090;SDS011;5599;52.210;21.046;2023-08-21T09:50:23;7.68;;;6.95;;
11090;SDS011;5599;52.210;21.046;2023-08-21T09:52:53;6.90;;;6.30;;
11090;SDS011;5599;52.210;21.046;2023-08-21T09:55:41;6.93;;;6.32;;
11090;SDS011;5599;52.210;21.046;2023-08-21T09:58:11;6.38;;;5.80;;
11090;SDS011;5599;52.210;21.046;2023-08-21T10:00:43;6.97;;;6.25;;
11090;SDS011;5599;52.210;21.046;2023-08-21T10:03:13;6.35;;;5.85;;
11090;SDS011;5599;52.210;21.046;2023-08-21T10:05:47;6.68;;;5.97;;
11090;SDS011;5599;52.210;21.046;2023-08-21T10:08:20;9.05;;;5.53;;
11090;SDS011;5599;52.210;21.046;2023-08-21T10:10:52;5.57;;;5.03;;
11090;SDS011;5599;52.210;21.046;2023-08-21T10:13:22;5.20;;;4.80;;
11090;SDS011;5599;52.210;21.046;2023-08-21T10:15:53;5.55;;;5.05;;
11090;SDS011;5599;52.210;21.046;2023-08-21T10:18:23;5.20;;;4.80;;
11090;SDS011;5599;52.210;21.046;2023-08-21T10:20:53;4.68;;;4.18;;
11090;SDS011;5599;52.210;21.046;2023-08-21T10:23:23;5.60;;;5.20;;
11090;SDS011;5599;52.210;21.046;2023-08-21T10:25:54;5.40;;;5.00;;
11090;SDS011;5599;52.210;21.046;2023-08-21T10:28:40;8.13;;;5.22;;
11090;SDS011;5599;52.210;21.046;2023-08-21T10:34:01;4.75;;;3.75;;
11090;SDS011;5599;52.210;21.046;2023-08-21T10:39:36;3.30;;;3.10;;
11090;SDS011;5599;52.210;21.046;2023-08-21T10:42:08;3.90;;;3.60;;
11090;SDS011;5599;52.210;21.046;2023-08-21T10:44:48;3.67;;;3.38;;
11090;SDS011;5599;52.210;21.046;2023-08-21T10:47:21;4.10;;;3.70;;
11090;SDS011;5599;52.210;21.046;2023-08-21T10:49:52;4.15;;;3.85;;
11090;SDS011;5599;52.210;21.046;2023-08-21T10:52:22;5.13;;;3.90;;
11090;SDS011;5599;52.210;21.046;2023-08-21T10:54:53;4.78;;;3.80;;
11090;SDS011;5599;52.210;21.046;2023-08-21T10:57:24;9.45;;;8.75;;
11090;SDS011;5599;52.210;21.046;2023-08-21T10:59:56;3.78;;;3.47;;
11090;SDS011;5599;52.210;21.046;2023-08-21T11:02:28;4.30;;;4.00;;
11090;SDS011;5599;52.210;21.046;2023-08-21T11:04:58;3.95;;;3.55;;
11090;SDS011;5599;52.210;21.046;2023-08-21T11:07:30;3.65;;;3.30;;
11090;SDS011;5599;52.210;21.046;2023-08-21T11:10:06;4.25;;;3.75;;
11090;SDS011;5599;52.210;21.046;2023-08-21T11:12:38;4.30;;;4.00;;
11090;SDS011;5599;52.210;21.046;2023-08-21T11:15:17;5.20;;;4.63;;
11090;SDS011;5599;52.210;21.046;2023-08-21T11:17:55;9.18;;;4.80;;
11090;SDS011;5599;52.210;21.046;2023-08-21T11:20:29;6.03;;;4.80;;
11090;SDS011;5599;52.210;21.046;2023-08-21T11:22:59;4.60;;;4.20;;
11090;SDS011;5599;52.210;21.046;2023-08-21T11:25:29;6.40;;;4.10;;
11090;SDS011;5599;52.210;21.046;2023-08-21T11:27:59;4.82;;;4.43;;
11090;SDS011;5599;52.210;21.046;2023-08-21T11:30:30;6.18;;;4.38;;
11090;SDS011;5599;52.210;21.046;2023-08-21T11:33:08;5.40;;;4.55;;
11090;SDS011;5599;52.210;21.046;2023-08-21T11:35:38;4.53;;;4.22;;
11090;SDS011;5599;52.210;21.046;2023-08-21T11:38:14;6.22;;;5.72;;
11090;SDS011;5599;52.210;21.046;2023-08-21T11:40:51;8.23;;;7.53;;
11090;SDS011;5599;52.210;21.046;2023-08-21T11:43:21;5.78;;;4.63;;
11090;SDS011;5599;52.210;21.046;2023-08-21T11:45:50;4.78;;;4.35;;
11090;SDS011;5599;52.210;21.046;2023-08-21T11:48:26;4.13;;;3.83;;
11090;SDS011;5599;52.210;21.046;2023-08-21T11:50:55;4.38;;;3.97;;
11090;SDS011;5599;52.210;21.046;2023-08-21T11:53:31;3.83;;;3.53;;
11090;SDS011;5599;52.210;21.046;2023-08-21T11:56:01;4.45;;;4.15;;
11090;SDS011;5599;52.210;21.046;2023-08-21T11:58:30;4.20;;;3.90;;
11090;SDS011;5599;52.210;21.046;2023-08-21T12:01:02;3.28;;;2.97;;
11090;SDS011;5599;52.210;21.046;2023-08-21T12:03:39;4.35;;;3.35;;
11090;SDS011;5599;52.210;21.046;2023-08-21T12:06:08;3.88;;;3.40;;
11090;SDS011;5599;52.210;21.046;2023-08-21T12:08:39;3.67;;;3.38;;
11090;SDS011;5599;52.210;21.046;2023-08-21T12:11:08;5.30;;;3.72;;
11090;SDS011;5599;52.210;21.046;2023-08-21T12:13:38;9.25;;;3.95;;
11090;SDS011;5599;52.210;21.046;2023-08-21T12:16:07;6.20;;;3.58;;
11090;SDS011;5599;52.210;21.046;2023-08-21T12:18:37;3.67;;;3.38;;
11090;SDS011;5599;52.210;21.046;2023-08-21T12:21:07;4.80;;;3.55;;
11090;SDS011;5599;52.210;21.046;2023-08-21T12:23:36;3.60;;;3.30;;
11090;SDS011;5599;52.210;21.046;2023-08-21T12:26:06;3.72;;;3.40;;
11090;SDS011;5599;52.210;21.046;2023-08-21T12:28:35;4.20;;;3.85;;
11090;SDS011;5599;52.210;21.046;2023-08-21T12:31:04;3.80;;;3.50;;
11090;SDS011;5599;52.210;21.046;2023-08-21T12:33:33;5.93;;;3.40;;
11090;SDS011;5599;52.210;21.046;2023-08-21T12:36:04;5.22;;;4.03;;
11090;SDS011;5599;52.210;21.046;2023-08-21T12:38:35;5.60;;;3.58;;
11090;SDS011;5599;52.210;21.046;2023-08-21T12:41:05;5.20;;;3.78;;
11090;SDS011;5599;52.210;21.046;2023-08-21T12:43:34;3.45;;;3.15;;
11090;SDS011;5599;52.210;21.046;2023-08-21T12:46:03;5.18;;;3.70;;
11090;SDS011;5599;52.210;21.046;2023-08-21T12:48:35;3.33;;;3.03;;
11090;SDS011;5599;52.210;21.046;2023-08-21T12:51:07;5.47;;;3.05;;
11090;SDS011;5599;52.210;21.046;2023-08-21T12:53:37;4.18;;;3.08;;
11090;SDS011;5599;52.210;21.046;2023-08-21T12:56:06;4.18;;;3.10;;
11090;SDS011;5599;52.210;21.046;2023-08-21T12:58:35;3.38;;;3.05;;
11090;SDS011;5599;52.210;21.046;2023-08-21T13:01:04;3.28;;;2.97;;
11090;SDS011;5599;52.210;21.046;2023-08-21T13:03:34;3.08;;;2.88;;
11090;SDS011;5599;52.210;21.046;2023-08-21T13:06:04;7.43;;;3.50;;
11090;SDS011;5599;52.210;21.046;2023-08-21T13:08:34;3.47;;;3.10;;
11090;SDS011;5599;52.210;21.046;2023-08-21T13:11:04;2.70;;;2.50;;
11090;SDS011;5599;52.210;21.046;2023-08-21T13:13:33;2.75;;;2.47;;
11090;SDS011;5599;52.210;21.046;2023-08-21T13:16:02;3.17;;;2.88;;
11090;SDS011;5599;52.210;21.046;2023-08-21T13:18:33;2.90;;;2.60;;
11090;SDS011;5599;52.210;21.046;2023-08-21T13:21:02;5.03;;;2.55;;
11090;SDS011;5599;52.210;21.046;2023-08-21T13:23:31;4.10;;;2.85;;
11090;SDS011;5599;52.210;21.046;2023-08-21T13:26:03;3.75;;;2.70;;
11090;SDS011;5599;52.210;21.046;2023-08-21T13:28:32;4.78;;;2.45;;
11090;SDS011;5599;52.210;21.046;2023-08-21T13:31:01;3.53;;;2.75;;
11090;SDS011;5599;52.210;21.046;2023-08-21T13:33:43;3.10;;;2.60;;
11090;SDS011;5599;52.210;21.046;2023-08-21T13:36:16;3.45;;;2.63;;
11090;SDS011;5599;52.210;21.046;2023-08-21T13:38:50;2.72;;;2.38;;
11090;SDS011;5599;52.210;21.046;2023-08-21T13:41:21;4.03;;;2.40;;
11090;SDS011;5599;52.210;21.046;2023-08-21T13:43:50;4.22;;;2.75;;
11090;SDS011;5599;52.210;21.046;2023-08-21T13:46:21;3.15;;;2.85;;
11090;SDS011;5599;52.210;21.046;2023-08-21T13:48:50;4.88;;;2.60;;
11090;SDS011;5599;52.210;21.046;2023-08-21T13:51:19;2.85;;;2.55;;
11090;SDS011;5599;52.210;21.046;2023-08-21T13:53:48;5.43;;;2.72;;
11090;SDS011;5599;52.210;21.046;2023-08-21T13:56:18;3.97;;;2.55;;
11090;SDS011;5599;52.210;21.046;2023-08-21T13:58:48;2.30;;;2.10;;
11090;SDS011;5599;52.210;21.046;2023-08-21T14:01:17;3.00;;;2.25;;
11090;SDS011;5599;52.210;21.046;2023-08-21T14:03:46;2.88;;;2.45;;
11090;SDS011;5599;52.210;21.046;2023-08-21T14:06:15;2.92;;;2.30;;
11090;SDS011;5599;52.210;21.046;2023-08-21T14:08:45;3.15;;;2.22;;
11090;SDS011;5599;52.210;21.046;2023-08-21T14:11:14;4.38;;;2.30;;
11090;SDS011;5599;52.210;21.046;2023-08-21T14:13:43;2.30;;;2.10;;
11090;SDS011;5599;52.210;21.046;2023-08-21T14:16:14;3.38;;;2.20;;
11090;SDS011;5599;52.210;21.046;2023-08-21T14:18:43;4.13;;;2.15;;
11090;SDS011;5599;52.210;21.046;2023-08-21T14:21:12;3.47;;;2.22;;
11090;SDS011;5599;52.210;21.046;2023-08-21T14:23:41;3.15;;;2.42;;
11090;SDS011;5599;52.210;21.046;2023-08-21T14:26:10;4.00;;;1.90;;
11090;SDS011;5599;52.210;21.046;2023-08-21T14:28:39;5.55;;;1.98;;
11090;SDS011;5599;52.210;21.046;2023-08-21T14:31:08;7.90;;;2.42;;
11090;SDS011;5599;52.210;21.046;2023-08-21T14:33:39;4.53;;;2.15;;
11090;SDS011;5599;52.210;21.046;2023-08-21T14:36:08;2.25;;;1.92;;
11090;SDS011;5599;52.210;21.046;2023-08-21T14:38:37;4.00;;;2.17;;
11090;SDS011;5599;52.210;21.046;2023-08-21T14:41:06;2.97;;;1.88;;
11090;SDS011;5599;52.210;21.046;2023-08-21T14:43:36;2.55;;;2.25;;
11090;SDS011;5599;52.210;21.046;2023-08-21T14:46:05;2.72;;;2.10;;
11090;SDS011;5599;52.210;21.046;2023-08-21T14:48:35;3.83;;;2.25;;
11090;SDS011;5599;52.210;21.046;2023-08-21T14:51:06;2.80;;;2.25;;
11090;SDS011;5599;52.210;21.046;2023-08-21T14:53:35;2.88;;;2.08;;
11090;SDS011;5599;52.210;21.046;2023-08-21T14:56:04;2.42;;;2.22;;